sensor_id;sensor_type;location;lat;lon;timestamp;P1;durP1;ratioP1;P2;durP2;ratioP2
50219;SDS011;36110;51.536;7.562;2022-11-20T00:00:56;12.80;;;8.45;;
50219;SDS011;36110;51.536;7.562;2022-11-20T00:03:22;11.00;;;8.02;;
50219;SDS011;36110;51.536;7.562;2022-11-20T00:05:47;10.45;;;7.82;;
50219;SDS011;36110;51.536;7.562;2022-11-20T00:08:13;11.80;;;8.30;;
50219;SDS011;36110;51.536;7.562;2022-11-20T00:10:38;11.13;;;7.95;;
50219;SDS011;36110;51.536;7.562;2022-11-20T00:13:04;10.98;;;8.07;;
50219;SDS011;36110;51.536;7.562;2022-11-20T00:15:29;11.05;;;8.52;;
50219;SDS011;36110;51.536;7.562;2022-11-20T00:17:55;10.70;;;8.15;;
50219;SDS011;36110;51.536;7.562;2022-11-20T00:20:20;9.88;;;7.75;;
50219;SDS011;36110;51.536;7.562;2022-11-20T00:22:45;10.68;;;8.20;;
50219;SDS011;36110;51.536;7.562;2022-11-20T00:25:11;9.73;;;7.57;;
50219;SDS011;36110;51.536;7.562;2022-11-20T00:27:36;10.60;;;8.05;;
50219;SDS011;36110;51.536;7.562;2022-11-20T00:30:02;9.27;;;7.43;;
50219;SDS011;36110;51.536;7.562;2022-11-20T00:32:28;10.25;;;7.88;;
50219;SDS011;36110;51.536;7.562;2022-11-20T00:34:54;10.50;;;7.70;;
50219;SDS011;36110;51.536;7.562;2022-11-20T00:37:19;8.70;;;7.25;;
50219;SDS011;36110;51.536;7.562;2022-11-20T00:39:44;8.63;;;7.15;;
50219;SDS011;36110;51.536;7.562;2022-11-20T00:42:10;10.88;;;7.28;;
50219;SDS011;36110;51.536;7.562;2022-11-20T00:44:35;9.40;;;7.28;;
50219;SDS011;36110;51.536;7.562;2022-11-20T00:47:00;9.80;;;7.47;;
50219;SDS011;36110;51.536;7.562;2022-11-20T00:49:26;10.85;;;7.50;;
50219;SDS011;36110;51.536;7.562;2022-11-20T00:51:51;10.65;;;8.05;;
50219;SDS011;36110;51.536;7.562;2022-11-20T00:54:16;10.73;;;7.80;;
50219;SDS011;36110;51.536;7.562;2022-11-20T00:56:41;9.75;;;7.32;;
50219;SDS011;36110;51.536;7.562;2022-11-20T00:59:08;10.82;;;7.68;;
50219;SDS011;36110;51.536;7.562;2022-11-20T01:01:34;10.30;;;7.65;;
50219;SDS011;36110;51.536;7.562;2022-11-20T01:04:01;9.40;;;7.20;;
50219;SDS011;36110;51.536;7.562;2022-11-20T01:06:36;11.25;;;8.40;;
50219;SDS011;36110;51.536;7.562;2022-11-20T01:09:09;8.60;;;6.72;;
50219;SDS011;36110;51.536;7.562;2022-11-20T01:11:36;9.35;;;7.07;;
50219;SDS011;36110;51.536;7.562;2022-11-20T01:14:04;10.57;;;7.15;;
50219;SDS011;36110;51.536;7.562;2022-11-20T01:16:32;10.20;;;7.00;;
50219;SDS011;36110;51.536;7.562;2022-11-20T01:19:02;9.50;;;6.70;;
50219;SDS011;36110;51.536;7.562;2022-11-20T01:24:01;9.43;;;7.03;;
50219;SDS011;36110;51.536;7.562;2022-11-20T01:26:29;9.07;;;7.18;;
50219;SDS011;36110;51.536;7.562;2022-11-20T01:28:55;8.40;;;6.78;;
50219;SDS011;36110;51.536;7.562;2022-11-20T01:31:25;9.10;;;7.10;;
50219;SDS011;36110;51.536;7.562;2022-11-20T01:34:02;8.85;;;7.20;;
50219;SDS011;36110;51.536;7.562;2022-11-20T01:36:29;9.23;;;6.72;;
50219;SDS011;36110;51.536;7.562;2022-11-20T01:38:56;8.77;;;6.80;;
50219;SDS011;36110;51.536;7.562;2022-11-20T01:41:23;8.88;;;6.90;;
50219;SDS011;36110;51.536;7.562;2022-11-20T01:44:08;9.18;;;7.15;;
50219;SDS011;36110;51.536;7.562;2022-11-20T01:46:36;9.18;;;6.80;;
50219;SDS011;36110;51.536;7.562;2022-11-20T01:49:03;8.23;;;6.18;;
50219;SDS011;36110;51.536;7.562;2022-11-20T01:51:32;8.57;;;6.07;;
50219;SDS011;36110;51.536;7.562;2022-11-20T01:54:01;8.73;;;6.78;;
50219;SDS011;36110;51.536;7.562;2022-11-20T01:56:29;10.35;;;7.97;;
50219;SDS011;36110;51.536;7.562;2022-11-20T01:58:56;8.70;;;6.53;;
50219;SDS011;36110;51.536;7.562;2022-11-20T02:01:23;8.38;;;6.55;;
50219;SDS011;36110;51.536;7.562;2022-11-20T02:03:49;9.57;;;6.90;;
50219;SDS011;36110;51.536;7.562;2022-11-20T02:06:17;7.95;;;6.32;;
50219;SDS011;36110;51.536;7.562;2022-11-20T02:08:46;8.43;;;6.45;;
50219;SDS011;36110;51.536;7.562;2022-11-20T02:11:11;18.67;;;12.85;;
50219;SDS011;36110;51.536;7.562;2022-11-20T02:13:37;8.98;;;7.25;;
50219;SDS011;36110;51.536;7.562;2022-11-20T02:16:29;8.77;;;6.60;;
50219;SDS011;36110;51.536;7.562;2022-11-20T02:21:30;9.90;;;6.68;;
50219;SDS011;36110;51.536;7.562;2022-11-20T02:26:25;8.52;;;6.13;;
50219;SDS011;36110;51.536;7.562;2022-11-20T02:28:51;7.55;;;6.25;;
50219;SDS011;36110;51.536;7.562;2022-11-20T02:31:16;8.35;;;6.32;;
50219;SDS011;36110;51.536;7.562;2022-11-20T02:33:42;9.23;;;6.25;;
50219;SDS011;36110;51.536;7.562;2022-11-20T02:36:08;8.10;;;6.45;;
50219;SDS011;36110;51.536;7.562;2022-11-20T02:38:36;7.88;;;6.20;;
50219;SDS011;36110;51.536;7.562;2022-11-20T02:41:02;8.57;;;6.45;;
50219;SDS011;36110;51.536;7.562;2022-11-20T02:43:27;6.90;;;5.65;;
50219;SDS011;36110;51.536;7.562;2022-11-20T02:45:53;6.90;;;6.20;;
50219;SDS011;36110;51.536;7.562;2022-11-20T02:48:18;8.15;;;6.38;;
50219;SDS011;36110;51.536;7.562;2022-11-20T02:50:43;8.30;;;6.30;;
50219;SDS011;36110;51.536;7.562;2022-11-20T02:53:22;13.02;;;9.13;;
50219;SDS011;36110;51.536;7.562;2022-11-20T02:55:51;22.30;;;16.05;;
50219;SDS011;36110;51.536;7.562;2022-11-20T02:58:20;7.22;;;5.85;;
50219;SDS011;36110;51.536;7.562;2022-11-20T03:00:56;7.82;;;6.35;;
50219;SDS011;36110;51.536;7.562;2022-11-20T03:03:21;8.10;;;6.00;;
50219;SDS011;36110;51.536;7.562;2022-11-20T03:05:54;7.30;;;5.75;;
50219;SDS011;36110;51.536;7.562;2022-11-20T03:08:37;8.05;;;6.50;;
50219;SDS011;36110;51.536;7.562;2022-11-20T03:11:09;7.45;;;6.13;;
50219;SDS011;36110;51.536;7.562;2022-11-20T03:13:47;27.52;;;18.33;;
50219;SDS011;36110;51.536;7.562;2022-11-20T03:16:23;24.92;;;15.63;;
50219;SDS011;36110;51.536;7.562;2022-11-20T03:18:54;8.25;;;6.13;;
50219;SDS011;36110;51.536;7.562;2022-11-20T03:21:26;7.70;;;6.35;;
50219;SDS011;36110;51.536;7.562;2022-11-20T03:24:26;17.67;;;12.35;;
50219;SDS011;36110;51.536;7.562;2022-11-20T03:27:01;8.82;;;6.43;;
50219;SDS011;36110;51.536;7.562;2022-11-20T03:29:27;8.30;;;6.57;;
50219;SDS011;36110;51.536;7.562;2022-11-20T03:31:57;24.17;;;17.08;;
50219;SDS011;36110;51.536;7.562;2022-11-20T03:34:22;23.60;;;16.38;;
50219;SDS011;36110;51.536;7.562;2022-11-20T03:36:55;8.13;;;6.05;;
50219;SDS011;36110;51.536;7.562;2022-11-20T03:39:21;9.77;;;6.50;;
50219;SDS011;36110;51.536;7.562;2022-11-20T03:41:54;26.70;;;17.52;;
50219;SDS011;36110;51.536;7.562;2022-11-20T03:44:23;25.25;;;18.50;;
50219;SDS011;36110;51.536;7.562;2022-11-20T03:46:48;10.32;;;7.97;;
50219;SDS011;36110;51.536;7.562;2022-11-20T03:49:14;9.23;;;6.32;;
50219;SDS011;36110;51.536;7.562;2022-11-20T03:51:45;7.93;;;6.28;;
50219;SDS011;36110;51.536;7.562;2022-11-20T03:54:15;15.43;;;10.25;;
50219;SDS011;36110;51.536;7.562;2022-11-20T03:56:48;26.55;;;19.50;;
50219;SDS011;36110;51.536;7.562;2022-11-20T03:59:30;7.95;;;6.20;;
50219;SDS011;36110;51.536;7.562;2022-11-20T04:02:09;8.13;;;6.38;;
50219;SDS011;36110;51.536;7.562;2022-11-20T04:04:40;10.60;;;8.05;;
50219;SDS011;36110;51.536;7.562;2022-11-20T04:07:08;7.15;;;6.22;;
50219;SDS011;36110;51.536;7.562;2022-11-20T04:09:48;8.98;;;6.97;;
50219;SDS011;36110;51.536;7.562;2022-11-20T04:12:15;7.22;;;5.95;;
50219;SDS011;36110;51.536;7.562;2022-11-20T04:14:51;7.32;;;5.78;;
50219;SDS011;36110;51.536;7.562;2022-11-20T04:17:23;14.93;;;10.80;;
50219;SDS011;36110;51.536;7.562;2022-11-20T04:19:57;7.63;;;5.82;;
50219;SDS011;36110;51.536;7.562;2022-11-20T04:22:31;7.53;;;6.10;;
50219;SDS011;36110;51.536;7.562;2022-11-20T04:25:15;21.77;;;14.65;;
50219;SDS011;36110;51.536;7.562;2022-11-20T04:28:01;32.05;;;22.55;;
50219;SDS011;36110;51.536;7.562;2022-11-20T04:30:38;29.00;;;20.27;;
50219;SDS011;36110;51.536;7.562;2022-11-20T04:33:12;7.85;;;6.60;;
50219;SDS011;36110;51.536;7.562;2022-11-20T04:35:51;8.37;;;6.23;;
50219;SDS011;36110;51.536;7.562;2022-11-20T04:38:24;7.90;;;6.05;;
50219;SDS011;36110;51.536;7.562;2022-11-20T04:41:08;7.40;;;5.78;;
50219;SDS011;36110;51.536;7.562;2022-11-20T04:43:51;8.25;;;6.13;;
50219;SDS011;36110;51.536;7.562;2022-11-20T04:46:32;14.20;;;10.35;;
50219;SDS011;36110;51.536;7.562;2022-11-20T04:52:18;11.20;;;8.68;;
50219;SDS011;36110;51.536;7.562;2022-11-20T04:54:46;15.85;;;12.25;;
50219;SDS011;36110;51.536;7.562;2022-11-20T04:57:33;7.20;;;5.97;;
50219;SDS011;36110;51.536;7.562;2022-11-20T05:00:09;7.07;;;5.80;;
50219;SDS011;36110;51.536;7.562;2022-11-20T05:02:34;7.75;;;5.93;;
50219;SDS011;36110;51.536;7.562;2022-11-20T05:05:00;6.97;;;5.72;;
50219;SDS011;36110;51.536;7.562;2022-11-20T05:07:25;8.90;;;5.80;;
50219;SDS011;36110;51.536;7.562;2022-11-20T05:09:50;6.47;;;5.55;;
50219;SDS011;36110;51.536;7.562;2022-11-20T05:12:16;6.97;;;5.93;;
50219;SDS011;36110;51.536;7.562;2022-11-20T05:14:41;7.80;;;6.05;;
50219;SDS011;36110;51.536;7.562;2022-11-20T05:17:09;6.90;;;5.20;;
50219;SDS011;36110;51.536;7.562;2022-11-20T05:19:35;6.50;;;5.68;;
50219;SDS011;36110;51.536;7.562;2022-11-20T05:22:00;6.35;;;5.43;;
50219;SDS011;36110;51.536;7.562;2022-11-20T05:24:26;6.85;;;5.70;;
50219;SDS011;36110;51.536;7.562;2022-11-20T05:26:51;7.03;;;5.75;;
50219;SDS011;36110;51.536;7.562;2022-11-20T05:29:16;7.80;;;6.05;;
50219;SDS011;36110;51.536;7.562;2022-11-20T05:31:41;6.68;;;5.68;;
50219;SDS011;36110;51.536;7.562;2022-11-20T05:34:07;6.90;;;5.47;;
50219;SDS011;36110;51.536;7.562;2022-11-20T05:36:34;6.10;;;5.22;;
50219;SDS011;36110;51.536;7.562;2022-11-20T05:38:59;6.82;;;5.68;;
50219;SDS011;36110;51.536;7.562;2022-11-20T05:41:24;6.40;;;5.30;;
50219;SDS011;36110;51.536;7.562;2022-11-20T05:43:50;5.95;;;5.13;;
50219;SDS011;36110;51.536;7.562;2022-11-20T05:46:17;6.05;;;5.10;;
50219;SDS011;36110;51.536;7.562;2022-11-20T05:48:44;7.18;;;5.78;;
50219;SDS011;36110;51.536;7.562;2022-11-20T05:51:11;7.00;;;5.45;;
50219;SDS011;36110;51.536;7.562;2022-11-20T05:53:37;6.38;;;5.25;;
50219;SDS011;36110;51.536;7.562;2022-11-20T05:56:04;5.72;;;4.90;;
50219;SDS011;36110;51.536;7.562;2022-11-20T05:58:31;6.95;;;5.25;;
50219;SDS011;36110;51.536;7.562;2022-11-20T06:01:04;5.95;;;5.13;;
50219;SDS011;36110;51.536;7.562;2022-11-20T06:03:30;6.15;;;5.13;;
50219;SDS011;36110;51.536;7.562;2022-11-20T06:05:56;6.28;;;5.05;;
50219;SDS011;36110;51.536;7.562;2022-11-20T06:08:23;6.28;;;5.25;;
50219;SDS011;36110;51.536;7.562;2022-11-20T06:10:49;6.22;;;5.45;;
50219;SDS011;36110;51.536;7.562;2022-11-20T06:13:14;6.75;;;5.38;;
50219;SDS011;36110;51.536;7.562;2022-11-20T06:15:39;7.50;;;5.70;;
50219;SDS011;36110;51.536;7.562;2022-11-20T06:18:05;7.78;;;5.55;;
50219;SDS011;36110;51.536;7.562;2022-11-20T06:20:30;7.22;;;5.93;;
50219;SDS011;36110;51.536;7.562;2022-11-20T06:22:55;6.07;;;5.03;;
50219;SDS011;36110;51.536;7.562;2022-11-20T06:25:21;6.82;;;5.50;;
50219;SDS011;36110;51.536;7.562;2022-11-20T06:27:46;6.55;;;5.30;;
50219;SDS011;36110;51.536;7.562;2022-11-20T06:30:11;7.82;;;5.50;;
50219;SDS011;36110;51.536;7.562;2022-11-20T06:32:37;6.35;;;5.10;;
50219;SDS011;36110;51.536;7.562;2022-11-20T06:35:02;6.10;;;4.85;;
50219;SDS011;36110;51.536;7.562;2022-11-20T06:37:28;6.57;;;5.10;;
50219;SDS011;36110;51.536;7.562;2022-11-20T06:39:53;7.50;;;5.10;;
50219;SDS011;36110;51.536;7.562;2022-11-20T06:42:18;6.93;;;5.40;;
50219;SDS011;36110;51.536;7.562;2022-11-20T06:44:44;5.95;;;5.03;;
50219;SDS011;36110;51.536;7.562;2022-11-20T06:47:09;7.85;;;5.68;;
50219;SDS011;36110;51.536;7.562;2022-11-20T06:49:34;6.32;;;5.32;;
50219;SDS011;36110;51.536;7.562;2022-11-20T06:52:01;6.47;;;5.22;;
50219;SDS011;36110;51.536;7.562;2022-11-20T06:54:27;6.40;;;5.40;;
50219;SDS011;36110;51.536;7.562;2022-11-20T06:56:52;6.82;;;5.60;;
50219;SDS011;36110;51.536;7.562;2022-11-20T06:59:18;6.47;;;5.13;;
50219;SDS011;36110;51.536;7.562;2022-11-20T07:01:46;6.30;;;5.00;;
50219;SDS011;36110;51.536;7.562;2022-11-20T07:04:11;6.72;;;5.38;;
50219;SDS011;36110;51.536;7.562;2022-11-20T07:06:37;7.00;;;5.05;;
50219;SDS011;36110;51.536;7.562;2022-11-20T07:09:02;6.50;;;5.05;;
50219;SDS011;36110;51.536;7.562;2022-11-20T07:11:27;6.80;;;5.00;;
50219;SDS011;36110;51.536;7.562;2022-11-20T07:13:53;6.38;;;5.22;;
50219;SDS011;36110;51.536;7.562;2022-11-20T07:16:18;5.82;;;5.18;;
50219;SDS011;36110;51.536;7.562;2022-11-20T07:18:45;6.07;;;4.95;;
50219;SDS011;36110;51.536;7.562;2022-11-20T07:21:10;7.65;;;5.03;;
50219;SDS011;36110;51.536;7.562;2022-11-20T07:23:41;6.20;;;5.30;;
50219;SDS011;36110;51.536;7.562;2022-11-20T07:26:07;6.47;;;5.30;;
50219;SDS011;36110;51.536;7.562;2022-11-20T07:28:34;6.25;;;5.00;;
50219;SDS011;36110;51.536;7.562;2022-11-20T07:30:59;5.82;;;4.93;;
50219;SDS011;36110;51.536;7.562;2022-11-20T07:33:25;6.63;;;5.57;;
50219;SDS011;36110;51.536;7.562;2022-11-20T07:35:50;6.00;;;5.13;;
50219;SDS011;36110;51.536;7.562;2022-11-20T07:38:15;6.25;;;5.38;;
50219;SDS011;36110;51.536;7.562;2022-11-20T07:40:41;6.97;;;5.47;;
50219;SDS011;36110;51.536;7.562;2022-11-20T07:43:06;6.68;;;5.22;;
50219;SDS011;36110;51.536;7.562;2022-11-20T07:45:31;5.47;;;4.93;;
50219;SDS011;36110;51.536;7.562;2022-11-20T07:47:57;19.05;;;13.25;;
50219;SDS011;36110;51.536;7.562;2022-11-20T07:50:22;16.33;;;12.25;;
50219;SDS011;36110;51.536;7.562;2022-11-20T07:52:47;18.73;;;12.52;;
50219;SDS011;36110;51.536;7.562;2022-11-20T07:55:13;15.85;;;11.98;;
50219;SDS011;36110;51.536;7.562;2022-11-20T07:57:39;17.52;;;12.73;;
50219;SDS011;36110;51.536;7.562;2022-11-20T08:00:05;16.85;;;12.18;;
50219;SDS011;36110;51.536;7.562;2022-11-20T08:02:33;15.07;;;11.27;;
50219;SDS011;36110;51.536;7.562;2022-11-20T08:04:59;15.45;;;11.60;;
50219;SDS011;36110;51.536;7.562;2022-11-20T08:07:24;15.88;;;11.68;;
50219;SDS011;36110;51.536;7.562;2022-11-20T08:09:49;13.50;;;10.80;;
50219;SDS011;36110;51.536;7.562;2022-11-20T08:12:16;14.07;;;11.00;;
50219;SDS011;36110;51.536;7.562;2022-11-20T08:15:03;14.52;;;11.02;;
50219;SDS011;36110;51.536;7.562;2022-11-20T08:17:29;15.32;;;11.00;;
50219;SDS011;36110;51.536;7.562;2022-11-20T08:19:54;17.17;;;11.40;;
50219;SDS011;36110;51.536;7.562;2022-11-20T08:22:20;14.02;;;10.82;;
50219;SDS011;36110;51.536;7.562;2022-11-20T08:24:45;14.52;;;10.68;;
50219;SDS011;36110;51.536;7.562;2022-11-20T08:27:11;15.15;;;10.63;;
50219;SDS011;36110;51.536;7.562;2022-11-20T08:29:37;15.15;;;10.90;;
50219;SDS011;36110;51.536;7.562;2022-11-20T08:32:02;12.95;;;9.85;;
50219;SDS011;36110;51.536;7.562;2022-11-20T08:34:27;13.18;;;10.45;;
50219;SDS011;36110;51.536;7.562;2022-11-20T08:36:53;12.93;;;10.27;;
50219;SDS011;36110;51.536;7.562;2022-11-20T08:39:18;12.88;;;10.05;;
50219;SDS011;36110;51.536;7.562;2022-11-20T08:41:43;12.48;;;9.95;;
50219;SDS011;36110;51.536;7.562;2022-11-20T08:44:08;13.75;;;9.57;;
50219;SDS011;36110;51.536;7.562;2022-11-20T08:46:35;12.48;;;9.88;;
50219;SDS011;36110;51.536;7.562;2022-11-20T08:49:02;13.63;;;10.23;;
50219;SDS011;36110;51.536;7.562;2022-11-20T08:51:28;11.75;;;9.60;;
50219;SDS011;36110;51.536;7.562;2022-11-20T08:53:54;11.30;;;9.48;;
50219;SDS011;36110;51.536;7.562;2022-11-20T08:56:19;13.07;;;10.25;;
50219;SDS011;36110;51.536;7.562;2022-11-20T08:58:44;11.70;;;9.30;;
50219;SDS011;36110;51.536;7.562;2022-11-20T09:01:10;12.80;;;9.80;;
50219;SDS011;36110;51.536;7.562;2022-11-20T09:03:35;12.15;;;9.52;;
50219;SDS011;36110;51.536;7.562;2022-11-20T09:06:02;12.48;;;9.52;;
50219;SDS011;36110;51.536;7.562;2022-11-20T09:08:28;13.23;;;10.10;;
50219;SDS011;36110;51.536;7.562;2022-11-20T09:10:54;12.73;;;10.02;;
50219;SDS011;36110;51.536;7.562;2022-11-20T09:13:21;13.32;;;9.27;;
50219;SDS011;36110;51.536;7.562;2022-11-20T09:15:46;12.10;;;8.90;;
50219;SDS011;36110;51.536;7.562;2022-11-20T09:18:12;10.70;;;8.57;;
50219;SDS011;36110;51.536;7.562;2022-11-20T09:20:38;11.25;;;8.75;;
50219;SDS011;36110;51.536;7.562;2022-11-20T09:23:03;13.98;;;9.18;;
50219;SDS011;36110;51.536;7.562;2022-11-20T09:25:28;10.48;;;8.35;;
50219;SDS011;36110;51.536;7.562;2022-11-20T09:27:58;10.90;;;8.77;;
50219;SDS011;36110;51.536;7.562;2022-11-20T09:30:24;10.63;;;8.63;;
50219;SDS011;36110;51.536;7.562;2022-11-20T09:32:49;9.70;;;8.23;;
50219;SDS011;36110;51.536;7.562;2022-11-20T09:35:14;10.27;;;8.23;;
50219;SDS011;36110;51.536;7.562;2022-11-20T09:37:40;23.23;;;16.45;;
50219;SDS011;36110;51.536;7.562;2022-11-20T09:40:06;12.27;;;9.02;;
50219;SDS011;36110;51.536;7.562;2022-11-20T09:42:45;10.32;;;8.05;;
50219;SDS011;36110;51.536;7.562;2022-11-20T09:45:23;10.15;;;8.40;;
50219;SDS011;36110;51.536;7.562;2022-11-20T09:47:59;9.38;;;7.53;;
50219;SDS011;36110;51.536;7.562;2022-11-20T09:50:36;17.27;;;13.35;;
50219;SDS011;36110;51.536;7.562;2022-11-20T09:53:13;10.57;;;8.27;;
50219;SDS011;36110;51.536;7.562;2022-11-20T09:55:45;9.52;;;7.63;;
50219;SDS011;36110;51.536;7.562;2022-11-20T09:58:29;11.25;;;7.85;;
50219;SDS011;36110;51.536;7.562;2022-11-20T10:03:54;15.77;;;11.90;;
50219;SDS011;36110;51.536;7.562;2022-11-20T10:06:33;11.98;;;9.15;;
50219;SDS011;36110;51.536;7.562;2022-11-20T10:09:25;25.23;;;17.85;;
50219;SDS011;36110;51.536;7.562;2022-11-20T10:14:51;20.63;;;15.38;;
50219;SDS011;36110;51.536;7.562;2022-11-20T10:26:26;26.00;;;17.65;;
50219;SDS011;36110;51.536;7.562;2022-11-20T10:31:34;12.68;;;8.40;;
50219;SDS011;36110;51.536;7.562;2022-11-20T10:34:40;8.98;;;7.03;;
50219;SDS011;36110;51.536;7.562;2022-11-20T10:37:17;9.20;;;7.18;;
50219;SDS011;36110;51.536;7.562;2022-11-20T10:39:47;8.27;;;7.20;;
50219;SDS011;36110;51.536;7.562;2022-11-20T10:42:16;8.13;;;6.82;;
50219;SDS011;36110;51.536;7.562;2022-11-20T10:44:47;8.52;;;6.80;;
50219;SDS011;36110;51.536;7.562;2022-11-20T10:47:25;14.40;;;10.20;;
50219;SDS011;36110;51.536;7.562;2022-11-20T10:49:53;15.00;;;10.77;;
50219;SDS011;36110;51.536;7.562;2022-11-20T10:58:14;9.32;;;6.95;;
50219;SDS011;36110;51.536;7.562;2022-11-20T11:00:43;7.90;;;6.68;;
50219;SDS011;36110;51.536;7.562;2022-11-20T11:03:30;9.23;;;6.93;;
50219;SDS011;36110;51.536;7.562;2022-11-20T11:05:56;7.68;;;6.50;;
50219;SDS011;36110;51.536;7.562;2022-11-20T11:08:28;8.15;;;6.43;;
50219;SDS011;36110;51.536;7.562;2022-11-20T11:11:00;14.35;;;10.57;;
50219;SDS011;36110;51.536;7.562;2022-11-20T11:13:32;8.02;;;6.68;;
50219;SDS011;36110;51.536;7.562;2022-11-20T11:15:58;8.15;;;6.75;;
50219;SDS011;36110;51.536;7.562;2022-11-20T11:20:50;8.98;;;6.05;;
50219;SDS011;36110;51.536;7.562;2022-11-20T11:23:26;6.28;;;5.63;;
50219;SDS011;36110;51.536;7.562;2022-11-20T11:25:56;13.32;;;10.10;;
50219;SDS011;36110;51.536;7.562;2022-11-20T11:28:23;7.07;;;6.20;;
50219;SDS011;36110;51.536;7.562;2022-11-20T11:30:51;7.65;;;6.55;;
50219;SDS011;36110;51.536;7.562;2022-11-20T11:33:26;11.45;;;9.20;;
50219;SDS011;36110;51.536;7.562;2022-11-20T11:35:53;11.30;;;8.38;;
50219;SDS011;36110;51.536;7.562;2022-11-20T11:38:30;13.88;;;9.25;;
50219;SDS011;36110;51.536;7.562;2022-11-20T11:40:59;14.80;;;9.98;;
50219;SDS011;36110;51.536;7.562;2022-11-20T11:43:26;15.68;;;11.18;;
50219;SDS011;36110;51.536;7.562;2022-11-20T11:48:58;14.13;;;10.85;;
50219;SDS011;36110;51.536;7.562;2022-11-20T11:51:41;14.82;;;11.07;;
50219;SDS011;36110;51.536;7.562;2022-11-20T11:54:16;15.43;;;12.05;;
50219;SDS011;36110;51.536;7.562;2022-11-20T11:56:44;14.98;;;11.43;;
50219;SDS011;36110;51.536;7.562;2022-11-20T11:59:12;15.02;;;11.38;;
50219;SDS011;36110;51.536;7.562;2022-11-20T12:01:47;14.07;;;11.32;;
50219;SDS011;36110;51.536;7.562;2022-11-20T12:04:25;15.10;;;11.48;;
50219;SDS011;36110;51.536;7.562;2022-11-20T12:07:06;12.98;;;10.68;;
50219;SDS011;36110;51.536;7.562;2022-11-20T12:09:46;15.20;;;10.65;;
50219;SDS011;36110;51.536;7.562;2022-11-20T12:12:17;14.93;;;11.38;;
50219;SDS011;36110;51.536;7.562;2022-11-20T12:14:46;13.93;;;10.98;;
50219;SDS011;36110;51.536;7.562;2022-11-20T12:17:14;14.38;;;10.75;;
50219;SDS011;36110;51.536;7.562;2022-11-20T12:19:39;15.52;;;10.98;;
50219;SDS011;36110;51.536;7.562;2022-11-20T12:22:07;14.07;;;10.50;;
50219;SDS011;36110;51.536;7.562;2022-11-20T12:27:39;14.23;;;11.27;;
50219;SDS011;36110;51.536;7.562;2022-11-20T12:30:10;14.82;;;11.45;;
50219;SDS011;36110;51.536;7.562;2022-11-20T12:38:30;14.35;;;10.48;;
50219;SDS011;36110;51.536;7.562;2022-11-20T12:47:42;19.50;;;10.68;;
50219;SDS011;36110;51.536;7.562;2022-11-20T12:53:20;15.80;;;11.02;;
50219;SDS011;36110;51.536;7.562;2022-11-20T12:55:55;13.40;;;10.45;;
50219;SDS011;36110;51.536;7.562;2022-11-20T13:01:12;15.10;;;10.65;;
50219;SDS011;36110;51.536;7.562;2022-11-20T13:04:07;14.77;;;11.40;;
50219;SDS011;36110;51.536;7.562;2022-11-20T13:06:37;16.20;;;12.10;;
50219;SDS011;36110;51.536;7.562;2022-11-20T13:09:06;12.93;;;9.57;;
50219;SDS011;36110;51.536;7.562;2022-11-20T13:11:37;12.65;;;9.65;;
50219;SDS011;36110;51.536;7.562;2022-11-20T13:14:09;11.15;;;9.45;;
50219;SDS011;36110;51.536;7.562;2022-11-20T13:19:36;12.90;;;10.38;;
50219;SDS011;36110;51.536;7.562;2022-11-20T13:22:01;17.83;;;13.93;;
50219;SDS011;36110;51.536;7.562;2022-11-20T13:24:28;19.85;;;14.65;;
50219;SDS011;36110;51.536;7.562;2022-11-20T13:29:31;20.88;;;15.98;;
50219;SDS011;36110;51.536;7.562;2022-11-20T13:34:29;23.05;;;16.80;;
50219;SDS011;36110;51.536;7.562;2022-11-20T13:36:57;25.80;;;18.38;;
50219;SDS011;36110;51.536;7.562;2022-11-20T13:39:26;12.10;;;9.80;;
50219;SDS011;36110;51.536;7.562;2022-11-20T13:42:02;25.98;;;18.67;;
50219;SDS011;36110;51.536;7.562;2022-11-20T13:44:38;15.75;;;11.70;;
50219;SDS011;36110;51.536;7.562;2022-11-20T13:47:17;26.33;;;18.45;;
50219;SDS011;36110;51.536;7.562;2022-11-20T13:49:46;23.30;;;17.42;;
50219;SDS011;36110;51.536;7.562;2022-11-20T13:54:48;28.17;;;19.63;;
50219;SDS011;36110;51.536;7.562;2022-11-20T14:00:26;27.88;;;19.52;;
50219;SDS011;36110;51.536;7.562;2022-11-20T14:05:23;25.10;;;18.15;;
50219;SDS011;36110;51.536;7.562;2022-11-20T14:07:48;23.10;;;15.88;;
50219;SDS011;36110;51.536;7.562;2022-11-20T14:10:23;18.15;;;13.15;;
50219;SDS011;36110;51.536;7.562;2022-11-20T14:12:51;12.80;;;10.13;;
50219;SDS011;36110;51.536;7.562;2022-11-20T14:15:24;20.42;;;14.48;;
50219;SDS011;36110;51.536;7.562;2022-11-20T14:17:54;22.85;;;17.30;;
50219;SDS011;36110;51.536;7.562;2022-11-20T14:20:19;14.43;;;11.00;;
50219;SDS011;36110;51.536;7.562;2022-11-20T14:22:51;19.05;;;14.40;;
50219;SDS011;36110;51.536;7.562;2022-11-20T14:27:43;14.00;;;10.70;;
50219;SDS011;36110;51.536;7.562;2022-11-20T14:30:15;22.50;;;17.33;;
50219;SDS011;36110;51.536;7.562;2022-11-20T14:32:42;25.70;;;17.85;;
50219;SDS011;36110;51.536;7.562;2022-11-20T14:35:09;28.90;;;18.77;;
50219;SDS011;36110;51.536;7.562;2022-11-20T14:37:38;27.90;;;18.98;;
50219;SDS011;36110;51.536;7.562;2022-11-20T14:40:20;23.60;;;17.25;;
50219;SDS011;36110;51.536;7.562;2022-11-20T14:42:47;26.30;;;18.65;;
50219;SDS011;36110;51.536;7.562;2022-11-20T14:45:13;28.52;;;19.92;;
50219;SDS011;36110;51.536;7.562;2022-11-20T14:47:38;28.73;;;19.48;;
50219;SDS011;36110;51.536;7.562;2022-11-20T14:50:07;24.10;;;17.45;;
50219;SDS011;36110;51.536;7.562;2022-11-20T14:52:38;27.45;;;18.30;;
50219;SDS011;36110;51.536;7.562;2022-11-20T14:55:03;24.58;;;18.05;;
50219;SDS011;36110;51.536;7.562;2022-11-20T14:57:32;22.00;;;15.70;;
50219;SDS011;36110;51.536;7.562;2022-11-20T15:02:43;24.70;;;17.75;;
50219;SDS011;36110;51.536;7.562;2022-11-20T15:05:09;23.60;;;17.05;;
50219;SDS011;36110;51.536;7.562;2022-11-20T15:07:36;17.70;;;13.48;;
50219;SDS011;36110;51.536;7.562;2022-11-20T15:10:06;24.10;;;18.10;;
50219;SDS011;36110;51.536;7.562;2022-11-20T15:12:54;18.08;;;13.38;;
50219;SDS011;36110;51.536;7.562;2022-11-20T15:15:29;23.85;;;17.58;;
50219;SDS011;36110;51.536;7.562;2022-11-20T15:17:57;23.95;;;17.58;;
50219;SDS011;36110;51.536;7.562;2022-11-20T15:20:24;19.63;;;14.38;;
50219;SDS011;36110;51.536;7.562;2022-11-20T15:22:51;14.30;;;11.25;;
50219;SDS011;36110;51.536;7.562;2022-11-20T15:25:17;14.07;;;11.05;;
50219;SDS011;36110;51.536;7.562;2022-11-20T15:27:43;22.73;;;16.23;;
50219;SDS011;36110;51.536;7.562;2022-11-20T15:30:13;16.98;;;11.63;;
50219;SDS011;36110;51.536;7.562;2022-11-20T15:32:40;14.63;;;11.70;;
50219;SDS011;36110;51.536;7.562;2022-11-20T15:35:06;23.00;;;16.80;;
50219;SDS011;36110;51.536;7.562;2022-11-20T15:37:31;13.60;;;10.90;;
50219;SDS011;36110;51.536;7.562;2022-11-20T15:39:57;12.27;;;9.82;;
50219;SDS011;36110;51.536;7.562;2022-11-20T15:42:22;17.50;;;12.55;;
50219;SDS011;36110;51.536;7.562;2022-11-20T15:44:47;21.10;;;14.88;;
50219;SDS011;36110;51.536;7.562;2022-11-20T15:47:13;19.15;;;13.57;;
50219;SDS011;36110;51.536;7.562;2022-11-20T15:49:38;15.70;;;11.85;;
50219;SDS011;36110;51.536;7.562;2022-11-20T15:52:03;28.52;;;19.27;;
50219;SDS011;36110;51.536;7.562;2022-11-20T15:54:29;22.75;;;17.23;;
50219;SDS011;36110;51.536;7.562;2022-11-20T15:56:54;29.85;;;18.65;;
50219;SDS011;36110;51.536;7.562;2022-11-20T15:59:20;26.20;;;18.65;;
50219;SDS011;36110;51.536;7.562;2022-11-20T16:01:45;27.45;;;20.15;;
50219;SDS011;36110;51.536;7.562;2022-11-20T16:04:11;12.18;;;8.98;;
50219;SDS011;36110;51.536;7.562;2022-11-20T16:06:38;20.55;;;15.25;;
50219;SDS011;36110;51.536;7.562;2022-11-20T16:09:04;12.02;;;8.77;;